Time;durP1;ratioP1;P1;durP2;ratioP2;P2;SDS_P1;SDS_P2;PMS_P1;PMS_P2;Temp;Humidity;BMP_temperature;BMP_pressure;BME280_temperature;BME280_humidity;BME280_pressure;Samples;Min_cycle;Max_cycle;Signal;HPM_P1;HPM_P2
2022/07/14 00:00:59;;;;;;;7.83;3.70;;;;;;;;;;5073362;28;20495;-75
2022/07/14 00:03:26;;;;;;;4.30;3.33;;;;;;;;;;5073106;28;20460;-75
2022/07/14 00:05:55;;;;;;;6.53;3.30;;;;;;;;;;5075235;28;20464;-75
2022/07/14 00:08:22;;;;;;;7.10;3.70;;;;;;;;;;5074632;28;20448;-75
2022/07/14 00:10:50;;;;;;;4.47;3.73;;;;;;;;;;5062761;28;20433;-74
2022/07/14 00:13:17;;;;;;;4.60;3.30;;;;;;;;;;5062323;28;20436;-75
2022/07/14 00:15:44;;;;;;;4.47;3.57;;;;;;;;;;5071812;28;20449;-74
2022/07/14 00:18:11;;;;;;;4.87;3.70;;;;;;;;;;5071691;28;20432;-74
2022/07/14 00:20:39;;;;;;;5.47;3.73;;;;;;;;;;5072562;28;20933;-75
2022/07/14 00:23:07;;;;;;;8.33;4.43;;;;;;;;;;5073132;28;20914;-75
2022/07/14 00:25:35;;;;;;;7.83;3.97;;;;;;;;;;5072890;28;20460;-75
2022/07/14 00:28:02;;;;;;;6.67;4.13;;;;;;;;;;5074624;28;20933;-75
2022/07/14 00:30:30;;;;;;;5.20;4.00;;;;;;;;;;5074626;28;20440;-75
2022/07/14 00:32:57;;;;;;;5.33;3.93;;;;;;;;;;5061660;28;20921;-75
2022/07/14 00:35:24;;;;;;;3.77;3.47;;;;;;;;;;5063460;28;20470;-74
2022/07/14 00:37:52;;;;;;;7.60;4.20;;;;;;;;;;5051709;28;20466;-75
2022/07/14 00:40:20;;;;;;;8.30;3.83;;;;;;;;;;5051437;28;20488;-74
2022/07/14 00:42:48;;;;;;;4.83;4.00;;;;;;;;;;5052157;28;20445;-74
2022/07/14 00:45:17;;;;;;;7.30;4.47;;;;;;;;;;5052795;28;20457;-74
2022/07/14 00:47:46;;;;;;;5.13;4.27;;;;;;;;;;5054930;28;20458;-75
2022/07/14 00:50:14;;;;;;;5.43;4.20;;;;;;;;;;5074096;28;20447;-75
2022/07/14 00:52:42;;;;;;;7.60;4.77;;;;;;;;;;5074178;28;20436;-74
2022/07/14 00:55:10;;;;;;;5.50;4.47;;;;;;;;;;5061346;28;20444;-74
2022/07/14 00:57:38;;;;;;;6.63;4.67;;;;;;;;;;5059822;28;20425;-74
2022/07/14 01:00:08;;;;;;;9.23;4.43;;;;;;;;;;5051327;28;20481;-74
2022/07/14 01:02:35;;;;;;;5.80;4.03;;;;;;;;;;5049653;28;20444;-74
2022/07/14 01:05:02;;;;;;;4.87;3.80;;;;;;;;;;5051863;28;20472;-74
2022/07/14 01:07:29;;;;;;;7.93;4.40;;;;;;;;;;5052269;28;20445;-74
2022/07/14 01:09:57;;;;;;;4.70;3.90;;;;;;;;;;5056499;28;20459;-75
2022/07/14 01:12:24;;;;;;;6.13;3.90;;;;;;;;;;5073893;28;20800;-74
2022/07/14 01:14:52;;;;;;;8.47;4.60;;;;;;;;;;5073447;28;20448;-74
2022/07/14 01:17:19;;;;;;;7.43;4.13;;;;;;;;;;5061125;28;20439;-74
2022/07/14 01:19:48;;;;;;;6.23;4.17;;;;;;;;;;5059828;28;20477;-74
2022/07/14 01:22:17;;;;;;;9.70;4.53;;;;;;;;;;5050959;28;20447;-75
2022/07/14 01:24:44;;;;;;;6.40;4.50;;;;;;;;;;5049439;28;20531;-74
2022/07/14 01:27:12;;;;;;;10.73;5.03;;;;;;;;;;5051447;28;20537;-74
2022/07/14 01:29:39;;;;;;;8.13;4.87;;;;;;;;;;5051707;28;20787;-75
2022/07/14 01:32:06;;;;;;;7.40;4.30;;;;;;;;;;5056163;28;20547;-75
2022/07/14 01:34:33;;;;;;;7.77;4.67;;;;;;;;;;5073468;28;20980;-74
2022/07/14 01:37:01;;;;;;;6.77;4.60;;;;;;;;;;5073583;28;20463;-74
2022/07/14 01:39:29;;;;;;;9.50;4.40;;;;;;;;;;5061112;28;20447;-74
2022/07/14 01:41:56;;;;;;;5.90;3.90;;;;;;;;;;5060923;28;20440;-74
2022/07/14 01:44:24;;;;;;;11.70;5.37;;;;;;;;;;5051231;28;20452;-74
2022/07/14 01:46:51;;;;;;;5.83;3.70;;;;;;;;;;5050392;28;20453;-74
2022/07/14 01:49:18;;;;;;;7.23;4.80;;;;;;;;;;5051259;28;20448;-75
2022/07/14 01:51:45;;;;;;;11.43;5.30;;;;;;;;;;5051752;28;20448;-74
2022/07/14 01:54:12;;;;;;;7.17;4.20;;;;;;;;;;5054151;28;20436;-74
2022/07/14 01:56:41;;;;;;;8.57;4.93;;;;;;;;;;5073107;28;20464;-74
2022/07/14 01:59:09;;;;;;;8.43;4.23;;;;;;;;;;5074183;28;20786;-74
2022/07/14 02:01:44;;;;;;;12.13;5.37;;;;;;;;;;5065600;28;20534;-74
2022/07/14 02:04:12;;;;;;;9.47;4.30;;;;;;;;;;5062242;28;20434;-74
2022/07/14 02:06:42;;;;;;;6.70;3.90;;;;;;;;;;5073933;28;20476;-74
2022/07/14 02:09:09;;;;;;;6.60;4.43;;;;;;;;;;5072930;28;20447;-74
2022/07/14 02:14:19;;;;;;;7.90;4.47;;;;;;;;;;5075137;28;20428;-75
2022/07/14 02:16:46;;;;;;;9.57;5.00;;;;;;;;;;5075209;28;20482;-75
2022/07/14 02:19:13;;;;;;;9.23;4.80;;;;;;;;;;5075892;28;20530;-75
2022/07/14 02:21:41;;;;;;;6.83;4.47;;;;;;;;;;5076696;28;20476;-74
2022/07/14 02:24:09;;;;;;;8.90;4.53;;;;;;;;;;5063177;28;20432;-74
2022/07/14 02:26:36;;;;;;;5.70;4.40;;;;;;;;;;5061954;28;20476;-74
2022/07/14 02:29:04;;;;;;;17.53;4.73;;;;;;;;;;5054068;28;20443;-74
2022/07/14 02:31:32;;;;;;;6.40;4.00;;;;;;;;;;5053728;28;21021;-74
2022/07/14 02:34:00;;;;;;;9.43;4.03;;;;;;;;;;5054556;28;20437;-74
2022/07/14 02:36:27;;;;;;;5.53;4.03;;;;;;;;;;5054923;28;20469;-74
2022/07/14 02:38:54;;;;;;;9.43;4.77;;;;;;;;;;5059297;28;20814;-74
2022/07/14 02:41:21;;;;;;;11.30;4.83;;;;;;;;;;5075499;28;20488;-74
2022/07/14 02:43:49;;;;;;;8.73;4.70;;;;;;;;;;5076597;28;20446;-75
2022/07/14 02:46:16;;;;;;;5.40;3.80;;;;;;;;;;5063921;28;20452;-73
2022/07/14 02:48:44;;;;;;;8.30;4.10;;;;;;;;;;5062538;28;20562;-74
2022/07/14 02:51:12;;;;;;;8.60;4.07;;;;;;;;;;5073224;28;20845;-74
2022/07/14 02:53:39;;;;;;;10.63;5.07;;;;;;;;;;5073505;28;20437;-74
2022/07/14 02:56:07;;;;;;;10.27;5.67;;;;;;;;;;5073276;28;20849;-74
2022/07/14 02:58:34;;;;;;;8.90;4.60;;;;;;;;;;5073429;28;20904;-74
2022/07/14 03:01:05;;;;;;;11.77;4.60;;;;;;;;;;5072759;28;20490;-75
2022/07/14 03:03:32;;;;;;;11.70;4.53;;;;;;;;;;5076295;28;20505;-73
2022/07/14 03:06:01;;;;;;;10.33;4.37;;;;;;;;;;5076066;28;20460;-75
2022/07/14 03:08:28;;;;;;;12.43;5.23;;;;;;;;;;5064340;28;20437;-75
2022/07/14 03:10:55;;;;;;;8.63;5.03;;;;;;;;;;5065282;28;20400;-74
2022/07/14 03:13:23;;;;;;;12.20;4.30;;;;;;;;;;5072518;28;20527;-74
2022/07/14 03:15:50;;;;;;;9.63;4.80;;;;;;;;;;5072886;28;20462;-74
2022/07/14 03:18:17;;;;;;;11.90;4.83;;;;;;;;;;5073939;28;20470;-74
2022/07/14 03:20:44;;;;;;;11.87;4.40;;;;;;;;;;5074378;28;20488;-74
2022/07/14 03:23:13;;;;;;;8.23;4.40;;;;;;;;;;5073530;28;20432;-74
2022/07/14 03:25:43;;;;;;;10.07;4.73;;;;;;;;;;5075649;28;20490;-74
2022/07/14 03:28:10;;;;;;;10.70;4.17;;;;;;;;;;5075570;28;20943;-74
2022/07/14 03:30:37;;;;;;;8.67;3.80;;;;;;;;;;5064437;28;20433;-74
2022/07/14 03:33:04;;;;;;;7.07;3.93;;;;;;;;;;5061504;28;20428;-74
2022/07/14 03:35:32;;;;;;;10.87;4.90;;;;;;;;;;5054142;28;20460;-74
2022/07/14 03:37:59;;;;;;;9.40;4.47;;;;;;;;;;5052736;28;20441;-74
2022/07/14 03:40:27;;;;;;;8.87;4.73;;;;;;;;;;5053198;28;20487;-74
2022/07/14 03:42:54;;;;;;;13.67;5.37;;;;;;;;;;5053687;28;20781;-74
2022/07/14 03:45:22;;;;;;;11.43;5.40;;;;;;;;;;5054566;28;20958;-75
2022/07/14 03:47:49;;;;;;;7.67;4.57;;;;;;;;;;5075390;28;20850;-74
2022/07/14 03:50:16;;;;;;;9.20;4.60;;;;;;;;;;5075487;28;20444;-75
2022/07/14 03:52:43;;;;;;;11.10;4.30;;;;;;;;;;5065071;28;20422;-74
2022/07/14 03:55:10;;;;;;;11.00;4.70;;;;;;;;;;5063701;28;20460;-74
2022/07/14 03:57:39;;;;;;;10.43;4.50;;;;;;;;;;5069638;28;20446;-75
2022/07/14 04:00:07;;;;;;;13.07;5.20;;;;;;;;;;5073109;28;20532;-74
2022/07/14 04:02:34;;;;;;;8.47;4.70;;;;;;;;;;5072498;28;20523;-74
2022/07/14 04:05:02;;;;;;;11.57;4.13;;;;;;;;;;5073256;28;20456;-74
2022/07/14 04:07:29;;;;;;;13.90;5.03;;;;;;;;;;5072486;28;20535;-74
2022/07/14 04:09:56;;;;;;;9.77;4.03;;;;;;;;;;5074819;28;20454;-74
2022/07/14 04:12:24;;;;;;;10.93;5.10;;;;;;;;;;5075119;28;20539;-74
2022/07/14 04:14:53;;;;;;;10.50;4.30;;;;;;;;;;5064271;28;20436;-74
2022/07/14 04:17:20;;;;;;;11.37;4.27;;;;;;;;;;5061536;28;20519;-75
2022/07/14 04:19:47;;;;;;;9.50;4.70;;;;;;;;;;5070268;28;20443;-74
2022/07/14 04:22:14;;;;;;;13.53;4.50;;;;;;;;;;5071483;28;20484;-74
2022/07/14 04:24:42;;;;;;;12.27;4.60;;;;;;;;;;5071661;28;20953;-73
2022/07/14 04:27:09;;;;;;;10.80;4.53;;;;;;;;;;5073194;28;20455;-75
2022/07/14 04:29:36;;;;;;;12.53;4.33;;;;;;;;;;5072072;28;20779;-74
2022/07/14 04:32:05;;;;;;;8.87;4.00;;;;;;;;;;5074423;28;20805;-74
2022/07/14 04:34:34;;;;;;;12.73;5.70;;;;;;;;;;5074307;28;20432;-74
2022/07/14 04:37:01;;;;;;;10.87;4.40;;;;;;;;;;5064905;28;20465;-74
2022/07/14 04:39:29;;;;;;;11.00;5.27;;;;;;;;;;5060774;28;20428;-73
2022/07/14 04:41:56;;;;;;;11.73;4.87;;;;;;;;;;5054526;28;20483;-74
2022/07/14 04:44:23;;;;;;;8.57;3.93;;;;;;;;;;5051993;28;20434;-75
2022/07/14 04:46:50;;;;;;;7.50;4.80;;;;;;;;;;5051480;28;20682;-75
2022/07/14 04:52:03;;;;;;;10.20;4.57;;;;;;;;;;5051699;28;20456;-75
2022/07/14 04:54:30;;;;;;;11.67;4.50;;;;;;;;;;5074133;28;20536;-74
2022/07/14 04:56:57;;;;;;;9.50;4.13;;;;;;;;;;5073998;28;21006;-74
2022/07/14 04:59:24;;;;;;;12.40;4.60;;;;;;;;;;5064583;28;20404;-74
2022/07/14 05:01:51;;;;;;;11.10;5.00;;;;;;;;;;5060046;28;21037;-75
2022/07/14 05:04:20;;;;;;;12.10;4.50;;;;;;;;;;5067860;28;20457;-74
2022/07/14 05:06:49;;;;;;;13.83;4.53;;;;;;;;;;5070257;28;20495;-74
2022/07/14 05:09:17;;;;;;;18.43;5.60;;;;;;;;;;5071096;28;20445;-74
2022/07/14 05:11:44;;;;;;;9.30;4.30;;;;;;;;;;5071983;28;20440;-74
2022/07/14 05:14:12;;;;;;;8.50;4.43;;;;;;;;;;5071640;28;20460;-74
2022/07/14 05:16:39;;;;;;;8.03;3.57;;;;;;;;;;5072814;28;20533;-74
2022/07/14 05:19:07;;;;;;;13.73;5.10;;;;;;;;;;5073829;28;20447;-74
2022/07/14 05:21:35;;;;;;;14.37;4.40;;;;;;;;;;5063735;28;20832;-74
2022/07/14 05:24:02;;;;;;;9.33;4.87;;;;;;;;;;5059516;28;20432;-73
2022/07/14 05:26:30;;;;;;;9.93;4.67;;;;;;;;;;5067570;28;20531;-74
2022/07/14 05:28:57;;;;;;;12.67;5.03;;;;;;;;;;5071279;28;20642;-74
2022/07/14 05:31:24;;;;;;;12.37;5.10;;;;;;;;;;5070767;28;20455;-74
2022/07/14 05:33:52;;;;;;;7.83;4.23;;;;;;;;;;5071350;28;20439;-74
2022/07/14 05:36:19;;;;;;;10.27;4.63;;;;;;;;;;5071373;28;20475;-74
2022/07/14 05:38:48;;;;;;;9.60;4.27;;;;;;;;;;5072920;28;20833;-74
2022/07/14 05:41:15;;;;;;;15.20;5.80;;;;;;;;;;5073306;28;20819;-74
2022/07/14 05:43:42;;;;;;;10.43;4.33;;;;;;;;;;5064854;28;20859;-74
2022/07/14 05:46:10;;;;;;;11.50;4.50;;;;;;;;;;5059648;28;20448;-74
2022/07/14 05:48:38;;;;;;;10.33;4.67;;;;;;;;;;5065864;28;20421;-75
2022/07/14 05:51:05;;;;;;;8.37;4.50;;;;;;;;;;5071269;28;20460;-74
2022/07/14 05:53:33;;;;;;;9.47;5.27;;;;;;;;;;5070533;28;20949;-74
2022/07/14 05:56:01;;;;;;;9.83;4.67;;;;;;;;;;5071263;28;20467;-73
2022/07/14 05:58:28;;;;;;;11.23;5.07;;;;;;;;;;5071361;28;20535;-74
2022/07/14 06:00:56;;;;;;;9.20;4.70;;;;;;;;;;5072398;28;20460;-74
2022/07/14 06:03:23;;;;;;;11.63;5.10;;;;;;;;;;5063073;28;20513;-74
2022/07/14 06:05:50;;;;;;;13.03;4.90;;;;;;;;;;5060991;28;20466;-74
2022/07/14 06:08:17;;;;;;;15.13;5.30;;;;;;;;;;5066796;28;20439;-74
2022/07/14 06:10:45;;;;;;;9.07;4.80;;;;;;;;;;5070672;28;20448;-74
2022/07/14 06:13:13;;;;;;;11.73;5.20;;;;;;;;;;5070188;28;20436;-78
2022/07/14 06:15:40;;;;;;;10.90;5.60;;;;;;;;;;5071125;28;20546;-77
2022/07/14 06:18:10;;;;;;;9.70;4.50;;;;;;;;;;5071305;28;20809;-75
2022/07/14 06:20:37;;;;;;;12.23;5.37;;;;;;;;;;5089940;28;20861;-75
2022/07/14 06:23:04;;;;;;;13.07;5.37;;;;;;;;;;5093060;28;20527;-75
2022/07/14 06:25:31;;;;;;;9.40;5.37;;;;;;;;;;5081311;28;20455;-75
2022/07/14 06:27:59;;;;;;;9.30;5.47;;;;;;;;;;5061530;28;20437;-75
2022/07/14 06:30:27;;;;;;;10.67;4.77;;;;;;;;;;5065332;28;20440;-73
2022/07/14 06:32:54;;;;;;;16.67;5.43;;;;;;;;;;5071136;28;20440;-74
2022/07/14 06:35:22;;;;;;;8.53;4.60;;;;;;;;;;5069872;28;20472;-74
2022/07/14 06:37:49;;;;;;;7.57;4.07;;;;;;;;;;5070627;28;20436;-74
2022/07/14 06:40:16;;;;;;;12.50;5.73;;;;;;;;;;5071376;28;20450;-74
2022/07/14 06:42:44;;;;;;;10.17;5.17;;;;;;;;;;5071675;28;20480;-78
2022/07/14 06:45:11;;;;;;;12.07;4.80;;;;;;;;;;5072817;28;20459;-74
2022/07/14 06:47:40;;;;;;;17.00;5.80;;;;;;;;;;5073702;28;20962;-75
2022/07/14 06:50:08;;;;;;;11.23;4.93;;;;;;;;;;5064145;28;20434;-74
2022/07/14 06:52:36;;;;;;;15.07;5.17;;;;;;;;;;5061156;28;20440;-76
2022/07/14 06:55:04;;;;;;;8.43;4.97;;;;;;;;;;5054121;28;20460;-73
2022/07/14 06:57:31;;;;;;;9.10;4.27;;;;;;;;;;5053501;28;20531;-74
2022/07/14 06:59:58;;;;;;;10.83;4.40;;;;;;;;;;5049429;28;20895;-74
2022/07/14 07:02:26;;;;;;;10.10;4.60;;;;;;;;;;5051176;28;20504;-75
2022/07/14 07:07:36;;;;;;;14.20;4.90;;;;;;;;;;5076307;28;20440;-74
2022/07/14 07:10:04;;;;;;;11.70;4.67;;;;;;;;;;5074065;28;20428;-74
2022/07/14 07:12:31;;;;;;;14.30;5.57;;;;;;;;;;5061663;28;20439;-75
2022/07/14 07:14:58;;;;;;;11.17;4.63;;;;;;;;;;5063726;28;20449;-75
2022/07/14 07:17:26;;;;;;;14.83;5.60;;;;;;;;;;5073553;28;20479;-75
2022/07/14 07:19:54;;;;;;;15.30;5.40;;;;;;;;;;5073098;28;20802;-74
2022/07/14 07:22:21;;;;;;;12.53;5.57;;;;;;;;;;5074218;28;20494;-75
2022/07/14 07:24:49;;;;;;;13.63;4.53;;;;;;;;;;5074090;28;20541;-75
2022/07/14 07:27:16;;;;;;;9.07;4.07;;;;;;;;;;5074124;28;20551;-74
2022/07/14 07:29:43;;;;;;;11.00;4.17;;;;;;;;;;5075731;28;21016;-73
2022/07/14 07:32:11;;;;;;;13.03;4.17;;;;;;;;;;5074469;28;20798;-73
2022/07/14 07:34:38;;;;;;;11.20;4.70;;;;;;;;;;5063393;28;20467;-74
2022/07/14 07:37:07;;;;;;;13.80;4.57;;;;;;;;;;5062288;28;20433;-75
2022/07/14 07:39:35;;;;;;;8.23;3.73;;;;;;;;;;5052585;28;20957;-75
2022/07/14 07:42:02;;;;;;;12.13;4.60;;;;;;;;;;5052508;28;20762;-74
2022/07/14 07:44:30;;;;;;;12.40;5.07;;;;;;;;;;5053359;28;20453;-74
2022/07/14 07:46:57;;;;;;;16.00;6.10;;;;;;;;;;5053440;28;21040;-73
2022/07/14 07:49:25;;;;;;;11.63;4.20;;;;;;;;;;5062981;28;20470;-73
2022/07/14 07:51:57;;;;;;;11.93;4.70;;;;;;;;;;5075258;28;20456;-73
2022/07/14 07:54:26;;;;;;;15.50;5.03;;;;;;;;;;5074977;28;20440;-73
2022/07/14 07:56:54;;;;;;;10.63;4.37;;;;;;;;;;5063153;28;20453;-73
2022/07/14 07:59:21;;;;;;;12.10;5.13;;;;;;;;;;5062765;28;20441;-73
2022/07/14 08:01:48;;;;;;;7.47;3.87;;;;;;;;;;5071947;28;20484;-73
2022/07/14 08:04:16;;;;;;;12.10;4.83;;;;;;;;;;5071685;28;20444;-74
2022/07/14 08:06:43;;;;;;;14.23;4.70;;;;;;;;;;5072702;28;20467;-74
2022/07/14 08:09:12;;;;;;;9.40;4.50;;;;;;;;;;5073207;28;20444;-73
2022/07/14 08:11:41;;;;;;;16.10;4.73;;;;;;;;;;5071386;28;20457;-73
2022/07/14 08:14:47;;;;;;;8.63;3.77;;;;;;;;;;5065295;28;20440;-74
2022/07/14 08:16:56;;;;;;;9.40;3.67;;;;;;;;;;5059303;28;20450;-73
2022/07/14 08:19:23;;;;;;;10.47;4.40;;;;;;;;;;5070329;28;20527;-74
2022/07/14 08:21:50;;;;;;;11.40;3.93;;;;;;;;;;5071553;28;20850;-73
2022/07/14 08:24:18;;;;;;;9.50;3.97;;;;;;;;;;5072123;28;20547;-73
2022/07/14 08:26:47;;;;;;;6.80;3.20;;;;;;;;;;5073287;28;20470;-73
2022/07/14 08:29:15;;;;;;;15.90;4.43;;;;;;;;;;5072515;28;20462;-73
2022/07/14 08:31:42;;;;;;;16.10;4.07;;;;;;;;;;5074416;28;20466;-74
2022/07/14 08:34:09;;;;;;;12.77;4.60;;;;;;;;;;5074361;28;20799;-73
2022/07/14 08:36:36;;;;;;;9.83;3.97;;;;;;;;;;5065852;28;20457;-74
2022/07/14 08:39:05;;;;;;;7.57;3.33;;;;;;;;;;5062240;28;20933;-73
2022/07/14 08:41:33;;;;;;;12.90;3.20;;;;;;;;;;5066920;28;20486;-73
2022/07/14 08:44:02;;;;;;;8.47;4.20;;;;;;;;;;5072068;28;20534;-73
2022/07/14 08:46:29;;;;;;;6.77;3.80;;;;;;;;;;5071237;28;20466;-73
2022/07/14 08:48:57;;;;;;;10.10;3.67;;;;;;;;;;5072162;28;20440;-73
2022/07/14 08:51:25;;;;;;;7.00;2.43;;;;;;;;;;5072228;28;20540;-73
2022/07/14 08:53:53;;;;;;;9.33;4.10;;;;;;;;;;5073444;28;20460;-74
2022/07/14 08:56:20;;;;;;;8.23;3.13;;;;;;;;;;5073965;28;20957;-74
2022/07/14 08:58:48;;;;;;;7.30;3.03;;;;;;;;;;5069345;28;20446;-73
2022/07/14 09:01:17;;;;;;;5.77;2.43;;;;;;;;;;5061886;28;20926;-78
2022/07/14 09:03:44;;;;;;;5.07;2.50;;;;;;;;;;5063890;28;20875;-74
2022/07/14 09:06:12;;;;;;;6.83;2.73;;;;;;;;;;5071695;28;20460;-74
2022/07/14 09:08:55;;;;;;;10.33;3.10;;;;;;;;;;5069074;28;20443;-75
2022/07/14 09:11:23;;;;;;;9.67;3.30;;;;;;;;;;5070823;28;20434;-74
2022/07/14 09:13:50;;;;;;;8.63;3.10;;;;;;;;;;5072224;28;21028;-74
2022/07/14 09:16:21;;;;;;;7.30;2.97;;;;;;;;;;5072570;28;20901;-74
2022/07/14 09:19:03;;;;;;;7.10;2.40;;;;;;;;;;5072715;28;20433;-75
2022/07/14 09:21:30;;;;;;;6.30;2.40;;;;;;;;;;5068108;28;20871;-75
2022/07/14 09:23:58;;;;;;;6.63;2.00;;;;;;;;;;5059849;28;20470;-74
2022/07/14 09:26:25;;;;;;;8.23;2.77;;;;;;;;;;5064150;28;20455;-75
2022/07/14 09:28:53;;;;;;;4.70;2.50;;;;;;;;;;5070079;28;20813;-71
2022/07/14 09:31:23;;;;;;;3.60;2.17;;;;;;;;;;5070632;28;20535;-75
2022/07/14 09:33:51;;;;;;;9.10;2.97;;;;;;;;;;5071537;28;20447;-77
2022/07/14 09:36:23;;;;;;;8.00;2.87;;;;;;;;;;5071763;28;20468;-77
2022/07/14 09:38:51;;;;;;;4.80;2.50;;;;;;;;;;5072446;28;20462;-76
2022/07/14 09:41:18;;;;;;;7.97;2.83;;;;;;;;;;5073396;28;20972;-75
2022/07/14 09:44:00;;;;;;;8.27;2.90;;;;;;;;;;5070737;28;20480;-73
2022/07/14 09:46:42;;;;;;;6.20;2.20;;;;;;;;;;5060032;28;20444;-73
2022/07/14 09:49:11;;;;;;;7.60;2.80;;;;;;;;;;5063661;28;20805;-73
2022/07/14 09:51:52;;;;;;;6.90;2.20;;;;;;;;;;5069920;28;20443;-73
2022/07/14 09:54:34;;;;;;;7.27;2.70;;;;;;;;;;5070483;28;20771;-73
2022/07/14 09:57:01;;;;;;;6.53;2.67;;;;;;;;;;5070473;28;20535;-73
2022/07/14 09:59:29;;;;;;;4.83;2.60;;;;;;;;;;5071309;28;20436;-74
2022/07/14 10:01:57;;;;;;;6.67;2.60;;;;;;;;;;5071504;28;20490;-73
2022/07/14 10:04:26;;;;;;;5.17;2.60;;;;;;;;;;5073466;28;20531;-73
2022/07/14 10:06:53;;;;;;;4.43;2.30;;;;;;;;;;5067974;28;20798;-73
2022/07/14 10:09:20;;;;;;;7.07;2.63;;;;;;;;;;5061705;28;20436;-73
2022/07/14 10:11:47;;;;;;;7.07;2.83;;;;;;;;;;5065529;28;20468;-73
2022/07/14 10:14:15;;;;;;;8.90;2.60;;;;;;;;;;5070929;28;20448;-73
2022/07/14 10:16:42;;;;;;;10.87;3.00;;;;;;;;;;5070114;28;20463;-75
2022/07/14 10:19:10;;;;;;;6.70;2.67;;;;;;;;;;5071144;28;20439;-74
2022/07/14 10:21:39;;;;;;;4.80;2.23;;;;;;;;;;5073338;28;20475;-74
2022/07/14 10:24:07;;;;;;;9.83;3.00;;;;;;;;;;5075988;28;20574;-74
2022/07/14 10:26:35;;;;;;;6.13;2.77;;;;;;;;;;5077049;28;20460;-74
2022/07/14 10:29:04;;;;;;;4.63;2.77;;;;;;;;;;5075541;28;20439;-74
2022/07/14 10:31:38;;;;;;;8.37;3.20;;;;;;;;;;5062423;28;20445;-74
2022/07/14 10:34:12;;;;;;;6.50;3.03;;;;;;;;;;5065359;28;20446;-74
2022/07/14 10:36:43;;;;;;;7.53;3.40;;;;;;;;;;5074064;28;20463;-73
2022/07/14 10:39:15;;;;;;;7.00;2.90;;;;;;;;;;5073713;28;20448;-73
2022/07/14 10:41:48;;;;;;;5.17;2.53;;;;;;;;;;5074392;28;20489;-73
2022/07/14 10:44:18;;;;;;;7.40;2.57;;;;;;;;;;5074932;28;20515;-73
2022/07/14 10:46:46;;;;;;;7.60;2.57;;;;;;;;;;5075371;28;20474;-73
2022/07/14 10:49:14;;;;;;;5.17;2.47;;;;;;;;;;5076773;28;20527;-73
2022/07/14 10:51:45;;;;;;;5.13;2.30;;;;;;;;;;5075750;28;20856;-73
2022/07/14 10:54:13;;;;;;;5.30;2.33;;;;;;;;;;5061809;28;20444;-73
2022/07/14 10:56:41;;;;;;;8.00;2.50;;;;;;;;;;5065999;28;20539;-73
2022/07/14 10:59:23;;;;;;;3.97;2.40;;;;;;;;;;5072162;28;20483;-73
2022/07/14 11:02:05;;;;;;;5.83;2.67;;;;;;;;;;5072994;28;20538;-73
2022/07/14 11:04:47;;;;;;;4.80;2.27;;;;;;;;;;5072839;28;20483;-73
2022/07/14 11:07:29;;;;;;;6.03;2.30;;;;;;;;;;5074214;28;20536;-73
2022/07/14 11:09:57;;;;;;;6.03;2.20;;;;;;;;;;5075030;28;20798;-73
2022/07/14 11:12:25;;;;;;;4.20;2.30;;;;;;;;;;5076062;28;20960;-73
2022/07/14 11:14:52;;;;;;;5.40;2.30;;;;;;;;;;5070751;28;20511;-73
2022/07/14 11:17:34;;;;;;;4.80;2.90;;;;;;;;;;5063156;28;20435;-73
2022/07/14 11:20:01;;;;;;;5.70;2.40;;;;;;;;;;5067146;28;20447;-76
2022/07/14 11:22:28;;;;;;;5.30;2.40;;;;;;;;;;5073557;28;20440;-75
2022/07/14 11:24:58;;;;;;;5.60;3.20;;;;;;;;;;5072830;28;20484;-76
2022/07/14 11:27:29;;;;;;;6.23;2.10;;;;;;;;;;5073626;28;20543;-76
2022/07/14 11:29:58;;;;;;;4.67;2.33;;;;;;;;;;5074015;28;20440;-74
2022/07/14 11:32:33;;;;;;;3.37;2.57;;;;;;;;;;5074426;28;20446;-74
2022/07/14 11:37:57;;;;;;;3.97;2.40;;;;;;;;;;5068572;28;20495;-76
2022/07/14 11:40:39;;;;;;;9.00;2.60;;;;;;;;;;5064372;28;20463;-76
2022/07/14 11:43:22;;;;;;;7.93;3.07;;;;;;;;;;5054619;28;20546;-76
2022/07/14 11:45:56;;;;;;;5.93;2.50;;;;;;;;;;5052176;28;20531;-75
2022/07/14 11:48:29;;;;;;;6.70;3.00;;;;;;;;;;5052964;28;20444;-75
2022/07/14 11:51:02;;;;;;;4.13;2.73;;;;;;;;;;5053931;28;20437;-76
2022/07/14 11:53:30;;;;;;;4.60;2.70;;;;;;;;;;5058319;28;20934;-78
2022/07/14 11:55:57;;;;;;;5.67;2.60;;;;;;;;;;5075049;28;20460;-76
2022/07/14 11:58:24;;;;;;;8.07;2.83;;;;;;;;;;5075179;28;20448;-74
2022/07/14 12:00:56;;;;;;;7.33;2.63;;;;;;;;;;5064954;28;20523;-75
2022/07/14 12:03:25;;;;;;;5.73;2.47;;;;;;;;;;5062426;28;20486;-74
2022/07/14 12:05:53;;;;;;;4.87;2.60;;;;;;;;;;5070556;28;20585;-76
2022/07/14 12:08:24;;;;;;;5.13;2.83;;;;;;;;;;5072364;28;20448;-79
2022/07/14 12:10:51;;;;;;;4.77;2.43;;;;;;;;;;5073173;28;20785;-76
2022/07/14 12:13:19;;;;;;;6.03;2.70;;;;;;;;;;5073059;28;20531;-76
2022/07/14 12:15:47;;;;;;;5.50;2.77;;;;;;;;;;5071293;28;20464;-78
2022/07/14 12:18:16;;;;;;;7.43;2.73;;;;;;;;;;5074905;28;20536;-77
2022/07/14 12:20:44;;;;;;;3.43;2.30;;;;;;;;;;5074617;28;20459;-75
2022/07/14 12:23:12;;;;;;;5.77;2.30;;;;;;;;;;5064929;28;20991;-75
2022/07/14 12:25:40;;;;;;;4.33;2.73;;;;;;;;;;5063452;28;20448;-77
2022/07/14 12:28:08;;;;;;;7.40;2.40;;;;;;;;;;5068321;28;20444;-77
2022/07/14 12:30:43;;;;;;;4.10;2.50;;;;;;;;;;5072370;28;20442;-77
2022/07/14 12:33:11;;;;;;;8.20;2.70;;;;;;;;;;5071615;28;20444;-78
2022/07/14 12:35:41;;;;;;;4.13;2.23;;;;;;;;;;5072767;28;20474;-77
2022/07/14 12:38:10;;;;;;;3.13;2.70;;;;;;;;;;5071724;28;20495;-76
2022/07/14 12:40:37;;;;;;;2.50;2.17;;;;;;;;;;5074229;28;20441;-79
2022/07/14 12:43:07;;;;;;;5.00;2.23;;;;;;;;;;5074099;28;20480;-80
2022/07/14 12:45:54;;;;;;;4.40;2.07;;;;;;;;;;5065456;28;20448;-76
2022/07/14 12:48:21;;;;;;;4.50;2.43;;;;;;;;;;5062870;28;20528;-80
2022/07/14 12:50:50;;;;;;;7.00;2.50;;;;;;;;;;5053661;28;21002;-79
2022/07/14 12:53:18;;;;;;;7.73;2.43;;;;;;;;;;5051858;28;20544;-79
2022/07/14 12:55:46;;;;;;;7.43;2.37;;;;;;;;;;5051385;28;20484;-80
2022/07/14 12:58:14;;;;;;;5.93;2.50;;;;;;;;;;5055016;28;20540;-79
2022/07/14 13:00:42;;;;;;;5.40;2.53;;;;;;;;;;5054572;28;20437;-81
2022/07/14 13:03:11;;;;;;;5.80;2.40;;;;;;;;;;5076047;28;20565;-77
2022/07/14 13:05:38;;;;;;;5.87;3.53;;;;;;;;;;5074178;28;20555;-79
2022/07/14 13:08:20;;;;;;;2.77;2.10;;;;;;;;;;5067671;28;20520;-76
2022/07/14 13:10:57;;;;;;;4.20;2.60;;;;;;;;;;5062182;28;20531;-79
2022/07/14 13:13:30;;;;;;;7.20;2.57;;;;;;;;;;5055216;28;20449;-75
2022/07/14 13:16:12;;;;;;;3.20;2.17;;;;;;;;;;5051385;28;20465;-77
2022/07/14 13:18:39;;;;;;;5.83;2.40;;;;;;;;;;5050564;28;20455;-78
2022/07/14 13:21:07;;;;;;;2.67;2.40;;;;;;;;;;5052350;28;20437;-74
2022/07/14 13:23:35;;;;;;;7.90;2.70;;;;;;;;;;5054192;28;20491;-75
2022/07/14 13:26:05;;;;;;;3.30;2.47;;;;;;;;;;5073616;28;20567;-75
2022/07/14 13:28:34;;;;;;;3.53;2.53;;;;;;;;;;5074464;28;20440;-77
2022/07/14 13:31:03;;;;;;;5.30;2.70;;;;;;;;;;5064230;28;20532;-75
2022/07/14 13:33:30;;;;;;;6.10;3.10;;;;;;;;;;5060810;28;20447;-78
2022/07/14 13:35:58;;;;;;;6.57;2.50;;;;;;;;;;5066858;28;21008;-76
2022/07/14 13:38:25;;;;;;;7.83;2.47;;;;;;;;;;5070084;28;20673;-76
2022/07/14 13:40:53;;;;;;;3.00;2.20;;;;;;;;;;5070774;28;20436;-76
2022/07/14 13:43:22;;;;;;;5.03;2.37;;;;;;;;;;5072122;28;20801;-77
2022/07/14 13:45:50;;;;;;;3.37;2.10;;;;;;;;;;5070910;28;20503;-77
2022/07/14 13:48:18;;;;;;;3.73;2.20;;;;;;;;;;5073650;28;20451;-75
2022/07/14 13:53:26;;;;;;;2.13;1.90;;;;;;;;;;5063613;28;20497;-76
2022/07/14 13:55:53;;;;;;;4.77;2.43;;;;;;;;;;5064075;28;20544;-75
2022/07/14 13:58:22;;;;;;;5.50;2.23;;;;;;;;;;5058130;28;20449;-77
2022/07/14 14:00:49;;;;;;;6.40;2.30;;;;;;;;;;5055078;28;20930;-76
2022/07/14 14:03:24;;;;;;;3.60;2.03;;;;;;;;;;5054503;28;20441;-76
2022/07/14 14:05:52;;;;;;;6.03;2.30;;;;;;;;;;5056149;28;20468;-77
2022/07/14 14:08:19;;;;;;;5.43;2.10;;;;;;;;;;5056056;28;20467;-78
2022/07/14 14:10:46;;;;;;;4.40;2.40;;;;;;;;;;5077472;28;20940;-76
2022/07/14 14:13:13;;;;;;;4.60;2.40;;;;;;;;;;5077452;28;20484;-75
2022/07/14 14:15:42;;;;;;;5.77;2.43;;;;;;;;;;5068543;28;20499;-75
2022/07/14 14:18:09;;;;;;;6.07;2.33;;;;;;;;;;5066226;28;20421;-77
2022/07/14 14:20:36;;;;;;;4.80;2.00;;;;;;;;;;5070661;28;20810;-75
2022/07/14 14:23:05;;;;;;;4.90;2.10;;;;;;;;;;5075088;28;20444;-76
2022/07/14 14:25:32;;;;;;;3.50;2.10;;;;;;;;;;5074131;28;20491;-75
2022/07/14 14:28:00;;;;;;;3.93;2.30;;;;;;;;;;5075256;28;20437;-76
2022/07/14 14:30:27;;;;;;;3.00;2.20;;;;;;;;;;5074818;28;20448;-76
2022/07/14 14:32:55;;;;;;;2.87;2.20;;;;;;;;;;5076380;28;20804;-78
2022/07/14 14:35:23;;;;;;;4.97;2.20;;;;;;;;;;5076738;28;20482;-77
2022/07/14 14:37:50;;;;;;;7.67;2.07;;;;;;;;;;5068917;28;20770;-76
2022/07/14 14:40:18;;;;;;;4.30;2.67;;;;;;;;;;5062521;28;20443;-73
2022/07/14 14:42:46;;;;;;;3.27;1.97;;;;;;;;;;5068785;28;20458;-74
2022/07/14 14:45:13;;;;;;;7.57;1.83;;;;;;;;;;5074265;28;20493;-73
2022/07/14 14:47:41;;;;;;;5.33;2.10;;;;;;;;;;5073709;28;20440;-73
2022/07/14 14:50:10;;;;;;;4.30;2.20;;;;;;;;;;5074671;28;20451;-74
2022/07/14 14:52:37;;;;;;;3.20;2.00;;;;;;;;;;5075024;28;20531;-77
2022/07/14 14:55:05;;;;;;;2.80;2.30;;;;;;;;;;5075634;28;20571;-75
2022/07/14 14:57:34;;;;;;;2.67;1.90;;;;;;;;;;5075610;28;20868;-75
2022/07/14 15:00:02;;;;;;;2.90;1.93;;;;;;;;;;5070643;28;20437;-78